This is the latest recevied weather packets stored in our database for station/object K4ZZR. If no packets are shown the sender has not sent any weather packets the latest 10 day(s).
| Time | Temp. | Humidity | Pressure | Rain* | Wind** | Luminosity | Snow |
|---|---|---|---|---|---|---|---|
| 1777645569 | 26.11° C | 81% | 1013 hPa | 0 mm | - | 358 W/m² | - |
| 1777645265 | 27.22° C | 80% | 1013 hPa | 0 mm | - | 614 W/m² | - |
| 1777644961 | 26.67° C | 79% | 1012.9 hPa | 0 mm | - | 739 W/m² | - |
| 1777644659 | 26.11° C | 83% | 1012.9 hPa | 0 mm | - | 744 W/m² | - |
| 1777644355 | 26.67° C | 80% | 1012.9 hPa | 0 mm | - | 238 W/m² | - |
| 1777644051 | 26.67° C | 81% | 1012.9 hPa | 0 mm | - | 673 W/m² | - |
| 1777643748 | 26.67° C | 82% | 1013 hPa | 0 mm | - | 640 W/m² | - |
| 1777643446 | 26.11° C | 84% | 1012.8 hPa | 0 mm | - | 618 W/m² | - |
| 1777642839 | 26.11° C | 85% | 1012.8 hPa | 0 mm | - | 556 W/m² | - |
| 1777642536 | 25.56° C | 87% | 1012.7 hPa | 0 mm | - | 519 W/m² | - |
| 1777642232 | 25.56° C | 86% | 1012.9 hPa | 0 mm | - | 493 W/m² | - |
| 1777641930 | 25.56° C | 87% | 1012.8 hPa | 0 mm | - | 351 W/m² | - |
| 1777641625 | 25° C | 89% | 1012.9 hPa | 0 mm | - | 426 W/m² | - |
| 1777641016 | 24.44° C | 91% | 1012.7 hPa | 0 mm | - | 189 W/m² | - |
| 1777639501 | 23.89° C | 90% | 1012.2 hPa | 0 mm | - | 327 W/m² | - |
| 1777638894 | 23.89° C | 92% | 1012.2 hPa | 0 mm | - | 286 W/m² | - |
| 1777638589 | 23.89° C | 93% | 1012.2 hPa | 0 mm | - | 270 W/m² | - |
| 1777638286 | 23.33° C | 94% | 1012.1 hPa | 0 mm | - | 264 W/m² | - |
| 1777637982 | 23.33° C | 95% | 1012.3 hPa | 0 mm | - | 136 W/m² | - |
| 1777637375 | 22.78° C | 95% | 1012.3 hPa | 0 mm | - | 126 W/m² | - |
| 1777637072 | 22.78° C | 96% | 1012.5 hPa | 0 mm | - | 186 W/m² | - |
| 1777636768 | 22.78° C | 96% | 1012.4 hPa | 0 mm | - | 99 W/m² | - |
| 1777636160 | 22.78° C | 95% | 1012.6 hPa | 0 mm | - | 148 W/m² | - |
| 1777635552 | 22.22° C | 97% | 1012.2 hPa | 0 mm | - | 96 W/m² | - |
| 1777635249 | 22.22° C | 98% | 1012 hPa | 0 mm | - | 75 W/m² | - |
* Rain latest hour (hover to see other rain measurements)
** Current wind speed in m/s (hover to see current wind gust speed)